sensor_id;sensor_type;location;lat;lon;timestamp;temperature;humidity
20856;DHT22;63058;49.424;8.420;2023-07-24T00:01:58;24.90;50.40
20856;DHT22;63058;49.424;8.420;2023-07-24T00:04:24;24.90;50.40
20856;DHT22;63058;49.424;8.420;2023-07-24T00:06:49;24.90;50.40
20856;DHT22;63058;49.424;8.420;2023-07-24T00:09:15;24.80;50.30
20856;DHT22;63058;49.424;8.420;2023-07-24T00:11:40;24.80;50.50
20856;DHT22;63058;49.424;8.420;2023-07-24T00:14:06;24.80;50.50
20856;DHT22;63058;49.424;8.420;2023-07-24T00:16:32;24.80;50.60
20856;DHT22;63058;49.424;8.420;2023-07-24T00:18:57;24.70;50.60
20856;DHT22;63058;49.424;8.420;2023-07-24T00:21:23;24.70;50.80
20856;DHT22;63058;49.424;8.420;2023-07-24T00:23:48;24.70;50.90
20856;DHT22;63058;49.424;8.420;2023-07-24T00:26:14;24.70;50.90
20856;DHT22;63058;49.424;8.420;2023-07-24T00:28:40;24.70;50.80
20856;DHT22;63058;49.424;8.420;2023-07-24T00:31:05;24.60;50.80
20856;DHT22;63058;49.424;8.420;2023-07-24T00:33:31;24.60;50.90
20856;DHT22;63058;49.424;8.420;2023-07-24T00:35:57;24.60;51.00
20856;DHT22;63058;49.424;8.420;2023-07-24T00:38:25;24.60;51.10
20856;DHT22;63058;49.424;8.420;2023-07-24T00:40:51;24.60;51.20
20856;DHT22;63058;49.424;8.420;2023-07-24T00:43:17;24.60;51.30
20856;DHT22;63058;49.424;8.420;2023-07-24T00:45:42;24.60;51.30
20856;DHT22;63058;49.424;8.420;2023-07-24T00:48:09;24.60;51.40
20856;DHT22;63058;49.424;8.420;2023-07-24T00:50:36;24.50;51.30
20856;DHT22;63058;49.424;8.420;2023-07-24T00:53:03;24.60;51.60
20856;DHT22;63058;49.424;8.420;2023-07-24T00:55:29;24.50;51.60
20856;DHT22;63058;49.424;8.420;2023-07-24T00:57:56;24.50;51.60
20856;DHT22;63058;49.424;8.420;2023-07-24T01:00:23;24.50;51.60
20856;DHT22;63058;49.424;8.420;2023-07-24T01:02:48;24.50;51.60
20856;DHT22;63058;49.424;8.420;2023-07-24T01:05:14;24.60;51.70
20856;DHT22;63058;49.424;8.420;2023-07-24T01:07:40;24.60;51.70
20856;DHT22;63058;49.424;8.420;2023-07-24T01:10:06;24.60;51.60
20856;DHT22;63058;49.424;8.420;2023-07-24T01:12:59;24.60;51.70
20856;DHT22;63058;49.424;8.420;2023-07-24T01:15:31;24.60;52.10
20856;DHT22;63058;49.424;8.420;2023-07-24T01:18:09;24.60;52.00
20856;DHT22;63058;49.424;8.420;2023-07-24T01:20:42;24.70;51.80
20856;DHT22;63058;49.424;8.420;2023-07-24T01:23:59;24.70;51.90
20856;DHT22;63058;49.424;8.420;2023-07-24T01:26:03;24.70;52.00
20856;DHT22;63058;49.424;8.420;2023-07-24T01:28:29;24.70;51.90
20856;DHT22;63058;49.424;8.420;2023-07-24T01:30:55;24.60;52.00
20856;DHT22;63058;49.424;8.420;2023-07-24T01:33:21;24.60;52.20
20856;DHT22;63058;49.424;8.420;2023-07-24T01:35:55;24.60;52.50
20856;DHT22;63058;49.424;8.420;2023-07-24T01:38:24;24.50;52.60
20856;DHT22;63058;49.424;8.420;2023-07-24T01:40:52;24.50;52.30
20856;DHT22;63058;49.424;8.420;2023-07-24T01:43:18;24.50;52.50
20856;DHT22;63058;49.424;8.420;2023-07-24T01:45:43;24.50;52.70
20856;DHT22;63058;49.424;8.420;2023-07-24T01:48:09;24.50;52.70
20856;DHT22;63058;49.424;8.420;2023-07-24T01:50:35;24.50;52.70
20856;DHT22;63058;49.424;8.420;2023-07-24T01:53:00;24.50;52.80
20856;DHT22;63058;49.424;8.420;2023-07-24T01:55:26;24.60;52.80
20856;DHT22;63058;49.424;8.420;2023-07-24T01:57:51;24.60;52.70
20856;DHT22;63058;49.424;8.420;2023-07-24T02:00:17;24.60;52.80
20856;DHT22;63058;49.424;8.420;2023-07-24T02:02:42;24.60;52.80
20856;DHT22;63058;49.424;8.420;2023-07-24T02:05:08;24.60;52.60
20856;DHT22;63058;49.424;8.420;2023-07-24T02:07:34;24.70;52.70
20856;DHT22;63058;49.424;8.420;2023-07-24T02:09:59;24.70;52.70
20856;DHT22;63058;49.424;8.420;2023-07-24T02:12:25;24.70;52.70
20856;DHT22;63058;49.424;8.420;2023-07-24T02:14:51;24.70;52.60
20856;DHT22;63058;49.424;8.420;2023-07-24T02:17:18;24.60;52.60
20856;DHT22;63058;49.424;8.420;2023-07-24T02:19:44;24.60;52.60
20856;DHT22;63058;49.424;8.420;2023-07-24T02:22:09;24.50;52.50
20856;DHT22;63058;49.424;8.420;2023-07-24T02:24:35;24.50;52.70
20856;DHT22;63058;49.424;8.420;2023-07-24T02:27:01;24.40;52.80
20856;DHT22;63058;49.424;8.420;2023-07-24T02:29:26;24.40;53.00
20856;DHT22;63058;49.424;8.420;2023-07-24T02:31:53;24.30;52.90
20856;DHT22;63058;49.424;8.420;2023-07-24T02:34:19;24.30;53.10
20856;DHT22;63058;49.424;8.420;2023-07-24T02:36:44;24.20;53.30
20856;DHT22;63058;49.424;8.420;2023-07-24T02:39:10;24.10;53.40
20856;DHT22;63058;49.424;8.420;2023-07-24T02:41:35;24.10;53.60
20856;DHT22;63058;49.424;8.420;2023-07-24T02:44:02;24.00;53.80
20856;DHT22;63058;49.424;8.420;2023-07-24T02:46:29;23.90;54.10
20856;DHT22;63058;49.424;8.420;2023-07-24T02:48:56;23.80;54.20
20856;DHT22;63058;49.424;8.420;2023-07-24T02:51:21;23.80;54.40
20856;DHT22;63058;49.424;8.420;2023-07-24T02:53:47;23.70;54.40
20856;DHT22;63058;49.424;8.420;2023-07-24T02:56:12;23.70;54.60
20856;DHT22;63058;49.424;8.420;2023-07-24T02:58:38;23.70;54.80
20856;DHT22;63058;49.424;8.420;2023-07-24T03:01:06;23.70;54.90
20856;DHT22;63058;49.424;8.420;2023-07-24T03:03:33;23.70;55.10
20856;DHT22;63058;49.424;8.420;2023-07-24T03:05:59;23.60;55.00
20856;DHT22;63058;49.424;8.420;2023-07-24T03:08:24;23.50;55.30
20856;DHT22;63058;49.424;8.420;2023-07-24T03:10:50;23.50;55.50
20856;DHT22;63058;49.424;8.420;2023-07-24T03:13:15;23.50;55.30
20856;DHT22;63058;49.424;8.420;2023-07-24T03:15:41;23.50;55.30
20856;DHT22;63058;49.424;8.420;2023-07-24T03:18:07;23.60;55.30
20856;DHT22;63058;49.424;8.420;2023-07-24T03:20:32;23.60;55.30
20856;DHT22;63058;49.424;8.420;2023-07-24T03:22:58;23.70;55.40
20856;DHT22;63058;49.424;8.420;2023-07-24T03:25:23;23.70;55.50
20856;DHT22;63058;49.424;8.420;2023-07-24T03:27:49;23.70;55.60
20856;DHT22;63058;49.424;8.420;2023-07-24T03:30:14;23.70;55.60
20856;DHT22;63058;49.424;8.420;2023-07-24T03:32:40;23.70;55.50
20856;DHT22;63058;49.424;8.420;2023-07-24T03:35:06;23.70;55.30
20856;DHT22;63058;49.424;8.420;2023-07-24T03:37:34;23.80;55.50
20856;DHT22;63058;49.424;8.420;2023-07-24T03:39:59;23.70;55.40
20856;DHT22;63058;49.424;8.420;2023-07-24T03:42:30;23.80;55.80
20856;DHT22;63058;49.424;8.420;2023-07-24T03:44:57;23.80;56.10
20856;DHT22;63058;49.424;8.420;2023-07-24T03:47:23;23.90;55.70
20856;DHT22;63058;49.424;8.420;2023-07-24T03:49:49;23.90;55.60
20856;DHT22;63058;49.424;8.420;2023-07-24T03:52:15;23.90;55.70
20856;DHT22;63058;49.424;8.420;2023-07-24T03:54:41;24.00;55.60
20856;DHT22;63058;49.424;8.420;2023-07-24T03:57:06;23.90;55.60
20856;DHT22;63058;49.424;8.420;2023-07-24T03:59:32;23.90;55.40
20856;DHT22;63058;49.424;8.420;2023-07-24T04:01:58;24.00;55.60
20856;DHT22;63058;49.424;8.420;2023-07-24T04:04:24;24.00;55.60
20856;DHT22;63058;49.424;8.420;2023-07-24T04:06:49;24.00;55.60
20856;DHT22;63058;49.424;8.420;2023-07-24T04:09:15;24.00;55.80
20856;DHT22;63058;49.424;8.420;2023-07-24T04:11:41;24.00;55.70
20856;DHT22;63058;49.424;8.420;2023-07-24T04:14:07;24.00;55.90
20856;DHT22;63058;49.424;8.420;2023-07-24T04:16:32;24.10;56.30
20856;DHT22;63058;49.424;8.420;2023-07-24T04:18:58;24.10;56.10
20856;DHT22;63058;49.424;8.420;2023-07-24T04:21:23;24.10;56.10
20856;DHT22;63058;49.424;8.420;2023-07-24T04:23:49;24.10;56.20
20856;DHT22;63058;49.424;8.420;2023-07-24T04:26:14;24.20;56.20
20856;DHT22;63058;49.424;8.420;2023-07-24T04:28:40;24.20;56.20
20856;DHT22;63058;49.424;8.420;2023-07-24T04:31:08;24.20;56.10
20856;DHT22;63058;49.424;8.420;2023-07-24T04:33:34;24.30;56.30
20856;DHT22;63058;49.424;8.420;2023-07-24T04:35:59;24.20;56.10
20856;DHT22;63058;49.424;8.420;2023-07-24T04:38:25;24.20;56.00
20856;DHT22;63058;49.424;8.420;2023-07-24T04:40:51;24.20;55.80
20856;DHT22;63058;49.424;8.420;2023-07-24T04:43:17;24.30;55.90
20856;DHT22;63058;49.424;8.420;2023-07-24T04:45:42;24.30;55.70
20856;DHT22;63058;49.424;8.420;2023-07-24T04:48:08;24.30;55.70
20856;DHT22;63058;49.424;8.420;2023-07-24T04:50:33;24.30;55.70
20856;DHT22;63058;49.424;8.420;2023-07-24T04:52:59;24.30;55.90
20856;DHT22;63058;49.424;8.420;2023-07-24T04:55:24;24.50;55.90
20856;DHT22;63058;49.424;8.420;2023-07-24T04:57:50;24.40;56.00
20856;DHT22;63058;49.424;8.420;2023-07-24T05:00:16;24.40;56.00
20856;DHT22;63058;49.424;8.420;2023-07-24T05:02:41;24.30;56.00
20856;DHT22;63058;49.424;8.420;2023-07-24T05:05:07;24.30;55.90
20856;DHT22;63058;49.424;8.420;2023-07-24T05:07:33;24.30;56.20
20856;DHT22;63058;49.424;8.420;2023-07-24T05:09:59;24.30;56.10
20856;DHT22;63058;49.424;8.420;2023-07-24T05:12:24;24.40;56.00
20856;DHT22;63058;49.424;8.420;2023-07-24T05:14:50;24.40;56.00
20856;DHT22;63058;49.424;8.420;2023-07-24T05:17:16;24.50;56.00
20856;DHT22;63058;49.424;8.420;2023-07-24T05:19:41;24.50;56.00
20856;DHT22;63058;49.424;8.420;2023-07-24T05:22:07;24.50;55.90
20856;DHT22;63058;49.424;8.420;2023-07-24T05:24:33;24.50;55.90
20856;DHT22;63058;49.424;8.420;2023-07-24T05:26:59;24.60;55.80
20856;DHT22;63058;49.424;8.420;2023-07-24T05:29:24;24.60;56.00
20856;DHT22;63058;49.424;8.420;2023-07-24T05:31:50;24.60;55.80
20856;DHT22;63058;49.424;8.420;2023-07-24T05:34:15;24.60;56.00
20856;DHT22;63058;49.424;8.420;2023-07-24T05:36:41;24.60;56.20
20856;DHT22;63058;49.424;8.420;2023-07-24T05:39:07;24.60;56.20
20856;DHT22;63058;49.424;8.420;2023-07-24T05:41:32;24.60;56.10
20856;DHT22;63058;49.424;8.420;2023-07-24T05:43:58;24.60;56.00
20856;DHT22;63058;49.424;8.420;2023-07-24T05:46:23;24.60;56.00
20856;DHT22;63058;49.424;8.420;2023-07-24T05:48:49;24.70;56.00
20856;DHT22;63058;49.424;8.420;2023-07-24T05:51:14;24.70;55.90
20856;DHT22;63058;49.424;8.420;2023-07-24T05:53:40;24.80;55.90
20856;DHT22;63058;49.424;8.420;2023-07-24T05:56:05;24.80;56.10
20856;DHT22;63058;49.424;8.420;2023-07-24T05:58:31;24.80;56.20
20856;DHT22;63058;49.424;8.420;2023-07-24T06:00:57;24.90;56.40
20856;DHT22;63058;49.424;8.420;2023-07-24T06:03:23;24.90;56.10
20856;DHT22;63058;49.424;8.420;2023-07-24T06:05:55;24.90;56.40
20856;DHT22;63058;49.424;8.420;2023-07-24T06:08:21;24.90;56.30
20856;DHT22;63058;49.424;8.420;2023-07-24T06:10:48;25.00;56.30
20856;DHT22;63058;49.424;8.420;2023-07-24T06:13:15;25.00;56.40
20856;DHT22;63058;49.424;8.420;2023-07-24T06:15:40;25.00;56.60
20856;DHT22;63058;49.424;8.420;2023-07-24T06:18:06;25.10;56.80
20856;DHT22;63058;49.424;8.420;2023-07-24T06:20:31;25.10;56.60
20856;DHT22;63058;49.424;8.420;2023-07-24T06:22:57;25.10;56.70
20856;DHT22;63058;49.424;8.420;2023-07-24T06:25:22;25.10;56.60
20856;DHT22;63058;49.424;8.420;2023-07-24T06:27:48;25.10;56.80
20856;DHT22;63058;49.424;8.420;2023-07-24T06:30:15;25.10;57.00
20856;DHT22;63058;49.424;8.420;2023-07-24T06:32:40;25.10;56.70
20856;DHT22;63058;49.424;8.420;2023-07-24T06:35:06;25.10;56.80
20856;DHT22;63058;49.424;8.420;2023-07-24T06:37:32;25.10;56.70
20856;DHT22;63058;49.424;8.420;2023-07-24T06:39:57;25.20;56.80
20856;DHT22;63058;49.424;8.420;2023-07-24T06:42:23;25.20;56.80
20856;DHT22;63058;49.424;8.420;2023-07-24T06:44:49;25.30;56.80
20856;DHT22;63058;49.424;8.420;2023-07-24T06:47:14;25.30;56.90
20856;DHT22;63058;49.424;8.420;2023-07-24T06:49:40;25.40;57.10
20856;DHT22;63058;49.424;8.420;2023-07-24T06:52:05;25.40;57.30
20856;DHT22;63058;49.424;8.420;2023-07-24T06:54:31;25.50;57.30
20856;DHT22;63058;49.424;8.420;2023-07-24T06:56:57;25.50;57.50
20856;DHT22;63058;49.424;8.420;2023-07-24T06:59:23;25.60;57.30
20856;DHT22;63058;49.424;8.420;2023-07-24T07:01:48;25.70;57.60
20856;DHT22;63058;49.424;8.420;2023-07-24T07:04:14;25.80;57.50
20856;DHT22;63058;49.424;8.420;2023-07-24T07:06:40;25.80;57.50
20856;DHT22;63058;49.424;8.420;2023-07-24T07:09:05;26.00;57.50
20856;DHT22;63058;49.424;8.420;2023-07-24T07:11:31;26.00;57.50
20856;DHT22;63058;49.424;8.420;2023-07-24T07:13:57;26.10;57.60
20856;DHT22;63058;49.424;8.420;2023-07-24T07:16:23;26.10;57.50
20856;DHT22;63058;49.424;8.420;2023-07-24T07:18:48;26.20;57.50
20856;DHT22;63058;49.424;8.420;2023-07-24T07:21:14;26.30;57.60
20856;DHT22;63058;49.424;8.420;2023-07-24T07:23:39;26.40;57.60
20856;DHT22;63058;49.424;8.420;2023-07-24T07:26:05;26.50;57.70
20856;DHT22;63058;49.424;8.420;2023-07-24T07:28:31;26.50;57.50
20856;DHT22;63058;49.424;8.420;2023-07-24T07:30:56;26.60;57.50
20856;DHT22;63058;49.424;8.420;2023-07-24T07:33:22;26.70;57.40
20856;DHT22;63058;49.424;8.420;2023-07-24T07:35:47;26.80;57.40
20856;DHT22;63058;49.424;8.420;2023-07-24T07:38:13;26.90;57.30
20856;DHT22;63058;49.424;8.420;2023-07-24T07:40:38;26.90;57.70
20856;DHT22;63058;49.424;8.420;2023-07-24T07:43:04;26.90;56.90
20856;DHT22;63058;49.424;8.420;2023-07-24T07:45:30;27.00;57.00
20856;DHT22;63058;49.424;8.420;2023-07-24T07:47:56;26.90;56.90
20856;DHT22;63058;49.424;8.420;2023-07-24T07:50:21;26.90;57.10
20856;DHT22;63058;49.424;8.420;2023-07-24T07:52:51;27.00;57.40
20856;DHT22;63058;49.424;8.420;2023-07-24T07:55:18;27.00;57.50
20856;DHT22;63058;49.424;8.420;2023-07-24T07:57:43;27.10;57.30
20856;DHT22;63058;49.424;8.420;2023-07-24T08:00:09;27.20;57.30
20856;DHT22;63058;49.424;8.420;2023-07-24T08:02:35;27.20;57.10
20856;DHT22;63058;49.424;8.420;2023-07-24T08:05:08;27.30;57.00
20856;DHT22;63058;49.424;8.420;2023-07-24T08:07:34;27.20;56.90
20856;DHT22;63058;49.424;8.420;2023-07-24T08:09:59;27.20;56.90
20856;DHT22;63058;49.424;8.420;2023-07-24T08:12:25;27.20;56.80
20856;DHT22;63058;49.424;8.420;2023-07-24T08:14:50;27.20;56.90
20856;DHT22;63058;49.424;8.420;2023-07-24T08:17:16;27.20;56.90
20856;DHT22;63058;49.424;8.420;2023-07-24T08:19:42;27.20;56.90
20856;DHT22;63058;49.424;8.420;2023-07-24T08:22:08;27.30;56.90
20856;DHT22;63058;49.424;8.420;2023-07-24T08:24:35;27.20;56.70
20856;DHT22;63058;49.424;8.420;2023-07-24T08:27:01;27.30;57.00
20856;DHT22;63058;49.424;8.420;2023-07-24T08:29:27;27.40;56.70
20856;DHT22;63058;49.424;8.420;2023-07-24T08:31:52;27.40;56.80
20856;DHT22;63058;49.424;8.420;2023-07-24T08:34:18;27.50;56.90
20856;DHT22;63058;49.424;8.420;2023-07-24T08:36:43;27.70;56.70
20856;DHT22;63058;49.424;8.420;2023-07-24T08:39:09;27.80;57.10
20856;DHT22;63058;49.424;8.420;2023-07-24T08:41:36;27.90;57.10
20856;DHT22;63058;49.424;8.420;2023-07-24T08:44:04;27.90;56.50
20856;DHT22;63058;49.424;8.420;2023-07-24T08:46:30;28.10;56.60
20856;DHT22;63058;49.424;8.420;2023-07-24T08:48:56;28.20;56.50
20856;DHT22;63058;49.424;8.420;2023-07-24T08:51:22;28.30;56.40
20856;DHT22;63058;49.424;8.420;2023-07-24T08:53:49;28.30;56.10
20856;DHT22;63058;49.424;8.420;2023-07-24T08:56:15;28.30;56.20
20856;DHT22;63058;49.424;8.420;2023-07-24T08:58:41;28.40;56.20
20856;DHT22;63058;49.424;8.420;2023-07-24T09:01:07;28.40;56.00
20856;DHT22;63058;49.424;8.420;2023-07-24T09:03:34;28.50;56.10
20856;DHT22;63058;49.424;8.420;2023-07-24T09:06:00;28.40;55.70
20856;DHT22;63058;49.424;8.420;2023-07-24T09:08:40;28.40;55.70
20856;DHT22;63058;49.424;8.420;2023-07-24T09:11:07;28.40;55.90
20856;DHT22;63058;49.424;8.420;2023-07-24T09:13:35;28.30;56.00
20856;DHT22;63058;49.424;8.420;2023-07-24T09:16:01;28.30;56.20
20856;DHT22;63058;49.424;8.420;2023-07-24T09:18:41;28.40;56.40
20856;DHT22;63058;49.424;8.420;2023-07-24T09:21:08;28.50;56.50
20856;DHT22;63058;49.424;8.420;2023-07-24T09:23:33;28.60;56.60
20856;DHT22;63058;49.424;8.420;2023-07-24T09:26:04;28.70;56.40
20856;DHT22;63058;49.424;8.420;2023-07-24T09:28:30;29.00;56.20
20856;DHT22;63058;49.424;8.420;2023-07-24T09:30:57;29.00;56.10
20856;DHT22;63058;49.424;8.420;2023-07-24T09:33:34;29.10;55.70
20856;DHT22;63058;49.424;8.420;2023-07-24T09:36:01;29.10;54.90
20856;DHT22;63058;49.424;8.420;2023-07-24T09:38:26;29.20;55.00
20856;DHT22;63058;49.424;8.420;2023-07-24T09:40:53;29.10;54.80
20856;DHT22;63058;49.424;8.420;2023-07-24T09:45:48;29.00;55.00
20856;DHT22;63058;49.424;8.420;2023-07-24T09:48:16;28.90;55.10
20856;DHT22;63058;49.424;8.420;2023-07-24T09:50:44;28.90;55.20
20856;DHT22;63058;49.424;8.420;2023-07-24T09:53:17;28.80;55.60
20856;DHT22;63058;49.424;8.420;2023-07-24T09:55:51;28.80;55.00
20856;DHT22;63058;49.424;8.420;2023-07-24T09:58:21;28.80;55.50
20856;DHT22;63058;49.424;8.420;2023-07-24T10:00:48;28.80;55.30
20856;DHT22;63058;49.424;8.420;2023-07-24T10:03:14;28.90;55.30
20856;DHT22;63058;49.424;8.420;2023-07-24T10:05:41;28.90;55.30
20856;DHT22;63058;49.424;8.420;2023-07-24T10:08:09;28.80;55.00
20856;DHT22;63058;49.424;8.420;2023-07-24T10:10:35;28.90;55.10
20856;DHT22;63058;49.424;8.420;2023-07-24T10:13:00;28.80;54.90
20856;DHT22;63058;49.424;8.420;2023-07-24T10:15:26;28.70;54.80
20856;DHT22;63058;49.424;8.420;2023-07-24T10:18:02;28.60;54.90
20856;DHT22;63058;49.424;8.420;2023-07-24T10:20:36;28.50;55.10
20856;DHT22;63058;49.424;8.420;2023-07-24T10:23:02;28.40;55.30
20856;DHT22;63058;49.424;8.420;2023-07-24T10:25:32;28.30;55.30
20856;DHT22;63058;49.424;8.420;2023-07-24T10:28:08;28.30;55.50
20856;DHT22;63058;49.424;8.420;2023-07-24T10:30:40;28.20;55.80
20856;DHT22;63058;49.424;8.420;2023-07-24T10:36:02;28.20;56.20
20856;DHT22;63058;49.424;8.420;2023-07-24T10:38:36;28.20;56.60
20856;DHT22;63058;49.424;8.420;2023-07-24T10:41:04;28.30;56.60
20856;DHT22;63058;49.424;8.420;2023-07-24T10:46:09;28.30;56.60
20856;DHT22;63058;49.424;8.420;2023-07-24T10:48:34;28.40;56.50
20856;DHT22;63058;49.424;8.420;2023-07-24T10:51:06;28.40;56.50
20856;DHT22;63058;49.424;8.420;2023-07-24T10:53:34;28.40;56.40
20856;DHT22;63058;49.424;8.420;2023-07-24T10:56:00;28.50;56.40
20856;DHT22;63058;49.424;8.420;2023-07-24T10:58:27;28.60;56.40
20856;DHT22;63058;49.424;8.420;2023-07-24T11:00:52;28.80;56.60
20856;DHT22;63058;49.424;8.420;2023-07-24T11:03:19;28.80;56.30
20856;DHT22;63058;49.424;8.420;2023-07-24T11:05:46;28.90;56.20
20856;DHT22;63058;49.424;8.420;2023-07-24T11:08:16;28.90;56.30
20856;DHT22;63058;49.424;8.420;2023-07-24T11:10:52;29.00;56.00
20856;DHT22;63058;49.424;8.420;2023-07-24T11:13:20;29.10;55.90
20856;DHT22;63058;49.424;8.420;2023-07-24T11:15:47;29.20;55.90
20856;DHT22;63058;49.424;8.420;2023-07-24T11:18:13;29.30;55.60
20856;DHT22;63058;49.424;8.420;2023-07-24T11:20:44;29.40;55.50
20856;DHT22;63058;49.424;8.420;2023-07-24T11:23:11;29.40;55.40
20856;DHT22;63058;49.424;8.420;2023-07-24T11:25:37;29.50;55.60
20856;DHT22;63058;49.424;8.420;2023-07-24T11:28:08;29.50;55.60
20856;DHT22;63058;49.424;8.420;2023-07-24T11:30:34;29.60;55.50
20856;DHT22;63058;49.424;8.420;2023-07-24T11:33:03;29.60;55.40
20856;DHT22;63058;49.424;8.420;2023-07-24T11:35:29;29.60;55.30
20856;DHT22;63058;49.424;8.420;2023-07-24T11:37:54;29.60;55.40
20856;DHT22;63058;49.424;8.420;2023-07-24T11:40:20;29.60;55.30
20856;DHT22;63058;49.424;8.420;2023-07-24T11:42:47;29.60;55.20
20856;DHT22;63058;49.424;8.420;2023-07-24T11:45:14;29.40;55.10
20856;DHT22;63058;49.424;8.420;2023-07-24T11:47:47;29.30;55.10
20856;DHT22;63058;49.424;8.420;2023-07-24T11:50:14;29.20;55.70
20856;DHT22;63058;49.424;8.420;2023-07-24T11:52:44;29.10;56.10
20856;DHT22;63058;49.424;8.420;2023-07-24T11:55:12;29.00;56.90
20856;DHT22;63058;49.424;8.420;2023-07-24T11:57:38;29.00;57.30
20856;DHT22;63058;49.424;8.420;2023-07-24T12:00:05;28.90;57.30
20856;DHT22;63058;49.424;8.420;2023-07-24T12:02:32;28.90;57.60
20856;DHT22;63058;49.424;8.420;2023-07-24T12:04:59;28.80;58.00
20856;DHT22;63058;49.424;8.420;2023-07-24T12:07:32;28.80;57.90
20856;DHT22;63058;49.424;8.420;2023-07-24T12:10:00;28.80;57.60
20856;DHT22;63058;49.424;8.420;2023-07-24T12:12:25;28.80;57.60
20856;DHT22;63058;49.424;8.420;2023-07-24T12:15:01;28.70;57.40
20856;DHT22;63058;49.424;8.420;2023-07-24T12:17:26;28.60;57.50
20856;DHT22;63058;49.424;8.420;2023-07-24T12:19:52;28.60;57.70
20856;DHT22;63058;49.424;8.420;2023-07-24T12:22:17;28.50;57.70
20856;DHT22;63058;49.424;8.420;2023-07-24T12:24:44;28.50;57.90
20856;DHT22;63058;49.424;8.420;2023-07-24T12:27:09;28.40;58.10
20856;DHT22;63058;49.424;8.420;2023-07-24T12:29:35;28.40;58.80
20856;DHT22;63058;49.424;8.420;2023-07-24T12:32:00;28.40;58.80
20856;DHT22;63058;49.424;8.420;2023-07-24T12:34:26;28.40;58.90
20856;DHT22;63058;49.424;8.420;2023-07-24T12:36:51;28.50;59.10
20856;DHT22;63058;49.424;8.420;2023-07-24T12:39:18;28.60;59.30
20856;DHT22;63058;49.424;8.420;2023-07-24T12:41:43;28.70;59.50
20856;DHT22;63058;49.424;8.420;2023-07-24T12:44:09;29.00;59.50
20856;DHT22;63058;49.424;8.420;2023-07-24T12:46:34;29.20;59.50
20856;DHT22;63058;49.424;8.420;2023-07-24T12:49:00;29.50;59.00
20856;DHT22;63058;49.424;8.420;2023-07-24T12:51:25;29.70;58.90
20856;DHT22;63058;49.424;8.420;2023-07-24T12:53:51;30.00;59.60
20856;DHT22;63058;49.424;8.420;2023-07-24T12:56:16;30.30;59.20
20856;DHT22;63058;49.424;8.420;2023-07-24T12:58:42;30.80;59.20
20856;DHT22;63058;49.424;8.420;2023-07-24T13:01:09;31.20;58.00
20856;DHT22;63058;49.424;8.420;2023-07-24T13:03:35;31.50;57.30
20856;DHT22;63058;49.424;8.420;2023-07-24T13:06:00;31.70;56.60
20856;DHT22;63058;49.424;8.420;2023-07-24T13:08:26;31.80;56.40
20856;DHT22;63058;49.424;8.420;2023-07-24T13:10:51;32.00;55.20
20856;DHT22;63058;49.424;8.420;2023-07-24T13:13:17;32.00;54.80
20856;DHT22;63058;49.424;8.420;2023-07-24T13:15:42;32.10;55.40
20856;DHT22;63058;49.424;8.420;2023-07-24T13:18:08;32.30;56.20
20856;DHT22;63058;49.424;8.420;2023-07-24T13:20:34;32.70;56.10
20856;DHT22;63058;49.424;8.420;2023-07-24T13:22:59;33.10;54.90
20856;DHT22;63058;49.424;8.420;2023-07-24T13:25:25;33.40;54.30
20856;DHT22;63058;49.424;8.420;2023-07-24T13:27:50;33.60;53.90
20856;DHT22;63058;49.424;8.420;2023-07-24T13:30:16;33.90;53.60
20856;DHT22;63058;49.424;8.420;2023-07-24T13:32:43;34.10;53.50
20856;DHT22;63058;49.424;8.420;2023-07-24T13:35:08;34.60;53.40
20856;DHT22;63058;49.424;8.420;2023-07-24T13:37:34;35.00;52.40
20856;DHT22;63058;49.424;8.420;2023-07-24T13:40:00;35.40;52.10
20856;DHT22;63058;49.424;8.420;2023-07-24T13:42:25;35.80;50.90
20856;DHT22;63058;49.424;8.420;2023-07-24T13:44:51;35.90;49.40
20856;DHT22;63058;49.424;8.420;2023-07-24T13:47:17;36.00;48.30
20856;DHT22;63058;49.424;8.420;2023-07-24T13:49:42;35.80;47.10
20856;DHT22;63058;49.424;8.420;2023-07-24T13:52:08;35.50;46.70
20856;DHT22;63058;49.424;8.420;2023-07-24T13:54:33;35.10;46.20
20856;DHT22;63058;49.424;8.420;2023-07-24T13:56:59;34.60;45.90
20856;DHT22;63058;49.424;8.420;2023-07-24T13:59:24;34.10;46.00
20856;DHT22;63058;49.424;8.420;2023-07-24T14:01:50;33.60;46.40
20856;DHT22;63058;49.424;8.420;2023-07-24T14:04:15;33.00;46.60
20856;DHT22;63058;49.424;8.420;2023-07-24T14:06:41;32.50;47.20
20856;DHT22;63058;49.424;8.420;2023-07-24T14:09:06;32.00;47.80
20856;DHT22;63058;49.424;8.420;2023-07-24T14:11:32;31.40;48.70
20856;DHT22;63058;49.424;8.420;2023-07-24T14:13:58;30.70;50.40
20856;DHT22;63058;49.424;8.420;2023-07-24T14:16:23;29.80;52.90
20856;DHT22;63058;49.424;8.420;2023-07-24T14:18:49;28.90;55.50
20856;DHT22;63058;49.424;8.420;2023-07-24T14:21:14;27.90;57.80
20856;DHT22;63058;49.424;8.420;2023-07-24T14:23:40;26.90;60.40
20856;DHT22;63058;49.424;8.420;2023-07-24T14:26:05;26.20;61.60
20856;DHT22;63058;49.424;8.420;2023-07-24T14:28:31;25.60;63.70
20856;DHT22;63058;49.424;8.420;2023-07-24T14:30:57;25.00;66.00
20856;DHT22;63058;49.424;8.420;2023-07-24T14:33:23;24.50;68.00
20856;DHT22;63058;49.424;8.420;2023-07-24T14:35:48;24.20;70.30
20856;DHT22;63058;49.424;8.420;2023-07-24T14:38:14;24.00;72.40
20856;DHT22;63058;49.424;8.420;2023-07-24T14:40:40;24.00;74.80
20856;DHT22;63058;49.424;8.420;2023-07-24T14:43:05;23.70;76.20
20856;DHT22;63058;49.424;8.420;2023-07-24T14:45:31;23.70;77.90
20856;DHT22;63058;49.424;8.420;2023-07-24T14:47:56;23.90;79.80
20856;DHT22;63058;49.424;8.420;2023-07-24T14:50:22;23.80;81.00
20856;DHT22;63058;49.424;8.420;2023-07-24T14:52:47;23.80;81.90
20856;DHT22;63058;49.424;8.420;2023-07-24T14:55:14;23.90;82.80
20856;DHT22;63058;49.424;8.420;2023-07-24T14:57:40;23.90;84.10
20856;DHT22;63058;49.424;8.420;2023-07-24T15:00:06;24.00;84.90
20856;DHT22;63058;49.424;8.420;2023-07-24T15:02:32;24.10;86.00
20856;DHT22;63058;49.424;8.420;2023-07-24T15:04:58;24.20;87.10
20856;DHT22;63058;49.424;8.420;2023-07-24T15:07:24;24.30;89.00
20856;DHT22;63058;49.424;8.420;2023-07-24T15:09:49;24.60;91.30
20856;DHT22;63058;49.424;8.420;2023-07-24T15:12:15;24.90;94.60
20856;DHT22;63058;49.424;8.420;2023-07-24T15:14:41;25.40;98.60
20856;DHT22;63058;49.424;8.420;2023-07-24T15:17:06;26.00;99.90
20856;DHT22;63058;49.424;8.420;2023-07-24T15:19:32;26.50;99.90
20856;DHT22;63058;49.424;8.420;2023-07-24T15:21:58;27.10;99.90
20856;DHT22;63058;49.424;8.420;2023-07-24T15:24:23;27.50;99.90
20856;DHT22;63058;49.424;8.420;2023-07-24T15:26:49;27.90;99.20
20856;DHT22;63058;49.424;8.420;2023-07-24T15:29:14;28.20;96.10
20856;DHT22;63058;49.424;8.420;2023-07-24T15:31:40;28.30;95.70
20856;DHT22;63058;49.424;8.420;2023-07-24T15:34:06;28.50;98.20